sensor_id;sensor_type;location;lat;lon;timestamp;temperature;humidity
75705;DHT22;64391;44.686;37.628;2022-11-20T00:00:06;12.60;95.64
75705;DHT22;64391;44.686;37.628;2022-11-20T00:01:14;12.58;95.69
75705;DHT22;64391;44.686;37.628;2022-11-20T00:02:15;12.63;95.98
75705;DHT22;64391;44.686;37.628;2022-11-20T00:03:17;12.64;96.13
75705;DHT22;64391;44.686;37.628;2022-11-20T00:04:18;12.69;95.84
75705;DHT22;64391;44.686;37.628;2022-11-20T00:05:19;12.75;96.02
75705;DHT22;64391;44.686;37.628;2022-11-20T00:06:22;12.80;95.91
75705;DHT22;64391;44.686;37.628;2022-11-20T00:07:23;12.80;95.64
75705;DHT22;64391;44.686;37.628;2022-11-20T00:08:24;12.84;95.37
75705;DHT22;64391;44.686;37.628;2022-11-20T00:09:26;12.90;95.36
75705;DHT22;64391;44.686;37.628;2022-11-20T00:10:27;12.89;95.03
75705;DHT22;64391;44.686;37.628;2022-11-20T00:11:29;12.87;94.94
75705;DHT22;64391;44.686;37.628;2022-11-20T00:12:31;12.85;94.99
75705;DHT22;64391;44.686;37.628;2022-11-20T00:13:32;12.85;95.06
75705;DHT22;64391;44.686;37.628;2022-11-20T00:14:34;12.81;95.10
75705;DHT22;64391;44.686;37.628;2022-11-20T00:15:35;12.80;95.16
75705;DHT22;64391;44.686;37.628;2022-11-20T00:16:36;12.77;95.42
75705;DHT22;64391;44.686;37.628;2022-11-20T00:17:38;12.76;95.43
75705;DHT22;64391;44.686;37.628;2022-11-20T00:18:39;12.71;95.52
75705;DHT22;64391;44.686;37.628;2022-11-20T00:19:40;12.71;95.55
75705;DHT22;64391;44.686;37.628;2022-11-20T00:20:42;12.69;95.62
75705;DHT22;64391;44.686;37.628;2022-11-20T00:21:43;12.66;96.05
75705;DHT22;64391;44.686;37.628;2022-11-20T00:22:44;12.67;96.18
75705;DHT22;64391;44.686;37.628;2022-11-20T00:23:46;12.67;95.95
75705;DHT22;64391;44.686;37.628;2022-11-20T00:24:48;12.65;95.74
75705;DHT22;64391;44.686;37.628;2022-11-20T00:25:49;12.66;96.01
75705;DHT22;64391;44.686;37.628;2022-11-20T00:26:50;12.65;95.97
75705;DHT22;64391;44.686;37.628;2022-11-20T00:27:52;12.70;96.42
75705;DHT22;64391;44.686;37.628;2022-11-20T00:28:54;12.71;96.21
75705;DHT22;64391;44.686;37.628;2022-11-20T00:29:56;12.71;95.98
75705;DHT22;64391;44.686;37.628;2022-11-20T00:31:03;12.71;96.03
75705;DHT22;64391;44.686;37.628;2022-11-20T00:32:05;12.70;96.35
75705;DHT22;64391;44.686;37.628;2022-11-20T00:33:06;12.71;96.33
75705;DHT22;64391;44.686;37.628;2022-11-20T00:34:08;12.73;96.42
75705;DHT22;64391;44.686;37.628;2022-11-20T00:35:10;12.74;96.19
75705;DHT22;64391;44.686;37.628;2022-11-20T00:36:13;12.76;96.13
75705;DHT22;64391;44.686;37.628;2022-11-20T00:37:14;12.76;96.42
75705;DHT22;64391;44.686;37.628;2022-11-20T00:38:15;12.78;96.34
75705;DHT22;64391;44.686;37.628;2022-11-20T00:39:17;12.79;96.55
75705;DHT22;64391;44.686;37.628;2022-11-20T00:40:19;12.80;96.62
75705;DHT22;64391;44.686;37.628;2022-11-20T00:41:21;12.79;96.49
75705;DHT22;64391;44.686;37.628;2022-11-20T00:42:22;12.79;96.63
75705;DHT22;64391;44.686;37.628;2022-11-20T00:43:24;12.84;96.78
75705;DHT22;64391;44.686;37.628;2022-11-20T00:44:25;12.92;96.67
75705;DHT22;64391;44.686;37.628;2022-11-20T00:45:27;12.96;96.58
75705;DHT22;64391;44.686;37.628;2022-11-20T00:46:28;12.96;96.22
75705;DHT22;64391;44.686;37.628;2022-11-20T00:47:29;13.01;96.42
75705;DHT22;64391;44.686;37.628;2022-11-20T00:48:31;13.00;95.95
75705;DHT22;64391;44.686;37.628;2022-11-20T00:49:32;12.97;95.89
75705;DHT22;64391;44.686;37.628;2022-11-20T00:50:34;12.99;96.16
75705;DHT22;64391;44.686;37.628;2022-11-20T00:51:35;13.05;96.15
75705;DHT22;64391;44.686;37.628;2022-11-20T00:52:36;13.12;96.12
75705;DHT22;64391;44.686;37.628;2022-11-20T00:53:38;13.19;95.59
75705;DHT22;64391;44.686;37.628;2022-11-20T00:54:39;13.21;95.32
75705;DHT22;64391;44.686;37.628;2022-11-20T00:55:41;13.20;95.49
75705;DHT22;64391;44.686;37.628;2022-11-20T00:56:42;13.21;95.91
75705;DHT22;64391;44.686;37.628;2022-11-20T00:57:43;13.24;95.60
75705;DHT22;64391;44.686;37.628;2022-11-20T00:58:45;13.22;95.82
75705;DHT22;64391;44.686;37.628;2022-11-20T00:59:47;13.19;95.75
75705;DHT22;64391;44.686;37.628;2022-11-20T01:00:48;13.23;95.74
75705;DHT22;64391;44.686;37.628;2022-11-20T01:01:50;13.26;95.45
75705;DHT22;64391;44.686;37.628;2022-11-20T01:02:51;13.25;95.62
75705;DHT22;64391;44.686;37.628;2022-11-20T01:03:53;13.30;95.61
75705;DHT22;64391;44.686;37.628;2022-11-20T01:04:55;13.27;95.23
75705;DHT22;64391;44.686;37.628;2022-11-20T01:05:59;13.27;95.31
75705;DHT22;64391;44.686;37.628;2022-11-20T01:07:00;13.22;95.47
75705;DHT22;64391;44.686;37.628;2022-11-20T01:08:01;13.29;95.77
75705;DHT22;64391;44.686;37.628;2022-11-20T01:09:04;13.24;95.15
75705;DHT22;64391;44.686;37.628;2022-11-20T01:10:06;13.19;95.27
75705;DHT22;64391;44.686;37.628;2022-11-20T01:11:09;13.20;95.43
75705;DHT22;64391;44.686;37.628;2022-11-20T01:12:10;13.17;95.17
75705;DHT22;64391;44.686;37.628;2022-11-20T01:13:11;13.12;95.16
75705;DHT22;64391;44.686;37.628;2022-11-20T01:14:31;13.14;95.62
75705;DHT22;64391;44.686;37.628;2022-11-20T01:15:33;13.17;95.70
75705;DHT22;64391;44.686;37.628;2022-11-20T01:16:35;13.16;95.18
75705;DHT22;64391;44.686;37.628;2022-11-20T01:17:37;13.12;95.36
75705;DHT22;64391;44.686;37.628;2022-11-20T01:18:39;13.15;95.39
75705;DHT22;64391;44.686;37.628;2022-11-20T01:19:41;13.08;95.74
75705;DHT22;64391;44.686;37.628;2022-11-20T01:20:42;13.09;95.74
75705;DHT22;64391;44.686;37.628;2022-11-20T01:21:44;13.08;95.88
75705;DHT22;64391;44.686;37.628;2022-11-20T01:22:46;13.06;95.88
75705;DHT22;64391;44.686;37.628;2022-11-20T01:23:47;13.04;95.86
75705;DHT22;64391;44.686;37.628;2022-11-20T01:24:49;13.02;95.90
75705;DHT22;64391;44.686;37.628;2022-11-20T01:25:50;13.02;95.91
75705;DHT22;64391;44.686;37.628;2022-11-20T01:26:51;12.97;96.13
75705;DHT22;64391;44.686;37.628;2022-11-20T01:27:53;13.01;96.25
75705;DHT22;64391;44.686;37.628;2022-11-20T01:28:54;13.02;96.10
75705;DHT22;64391;44.686;37.628;2022-11-20T01:29:56;13.01;96.13
75705;DHT22;64391;44.686;37.628;2022-11-20T01:30:58;13.00;96.37
75705;DHT22;64391;44.686;37.628;2022-11-20T01:31:59;13.03;96.54
75705;DHT22;64391;44.686;37.628;2022-11-20T01:33:01;13.07;96.32
75705;DHT22;64391;44.686;37.628;2022-11-20T01:34:06;13.02;95.90
75705;DHT22;64391;44.686;37.628;2022-11-20T01:35:08;13.03;96.20
75705;DHT22;64391;44.686;37.628;2022-11-20T01:36:10;13.05;96.32
75705;DHT22;64391;44.686;37.628;2022-11-20T01:37:12;13.07;96.17
75705;DHT22;64391;44.686;37.628;2022-11-20T01:38:14;13.08;96.12
75705;DHT22;64391;44.686;37.628;2022-11-20T01:39:17;13.11;96.13
75705;DHT22;64391;44.686;37.628;2022-11-20T01:40:19;13.17;96.20
75705;DHT22;64391;44.686;37.628;2022-11-20T01:41:21;13.14;95.67
75705;DHT22;64391;44.686;37.628;2022-11-20T01:42:44;13.16;96.10
75705;DHT22;64391;44.686;37.628;2022-11-20T01:44:05;13.18;96.02
75705;DHT22;64391;44.686;37.628;2022-11-20T01:46:27;13.15;95.61
75705;DHT22;64391;44.686;37.628;2022-11-20T01:47:39;13.17;95.91
75705;DHT22;64391;44.686;37.628;2022-11-20T01:48:52;13.15;95.69
75705;DHT22;64391;44.686;37.628;2022-11-20T01:49:56;13.16;95.82
75705;DHT22;64391;44.686;37.628;2022-11-20T01:50:59;13.12;95.69
75705;DHT22;64391;44.686;37.628;2022-11-20T01:52:05;13.11;95.73
75705;DHT22;64391;44.686;37.628;2022-11-20T01:53:09;13.08;95.76
75705;DHT22;64391;44.686;37.628;2022-11-20T01:54:15;13.09;95.72
75705;DHT22;64391;44.686;37.628;2022-11-20T01:55:19;13.06;95.89
75705;DHT22;64391;44.686;37.628;2022-11-20T01:56:20;13.03;96.05
75705;DHT22;64391;44.686;37.628;2022-11-20T01:57:22;13.01;95.96
75705;DHT22;64391;44.686;37.628;2022-11-20T01:58:30;13.01;96.20
75705;DHT22;64391;44.686;37.628;2022-11-20T01:59:33;13.04;96.07
75705;DHT22;64391;44.686;37.628;2022-11-20T02:00:34;13.04;96.06
75705;DHT22;64391;44.686;37.628;2022-11-20T02:01:36;13.08;96.13
75705;DHT22;64391;44.686;37.628;2022-11-20T02:02:37;13.14;96.16
75705;DHT22;64391;44.686;37.628;2022-11-20T02:03:40;13.17;96.09
75705;DHT22;64391;44.686;37.628;2022-11-20T02:04:42;13.18;95.89
75705;DHT22;64391;44.686;37.628;2022-11-20T02:05:45;13.17;95.73
75705;DHT22;64391;44.686;37.628;2022-11-20T02:06:48;13.18;95.90
75705;DHT22;64391;44.686;37.628;2022-11-20T02:07:50;13.15;95.78
75705;DHT22;64391;44.686;37.628;2022-11-20T02:08:53;13.18;95.80
75705;DHT22;64391;44.686;37.628;2022-11-20T02:09:55;13.17;95.65
75705;DHT22;64391;44.686;37.628;2022-11-20T02:10:57;13.17;95.79
75705;DHT22;64391;44.686;37.628;2022-11-20T02:11:58;13.20;95.73
75705;DHT22;64391;44.686;37.628;2022-11-20T02:13:00;13.22;95.79
75705;DHT22;64391;44.686;37.628;2022-11-20T02:14:20;13.24;96.04
75705;DHT22;64391;44.686;37.628;2022-11-20T02:15:22;13.24;96.10
75705;DHT22;64391;44.686;37.628;2022-11-20T02:16:25;13.21;95.96
75705;DHT22;64391;44.686;37.628;2022-11-20T02:17:27;13.22;96.17
75705;DHT22;64391;44.686;37.628;2022-11-20T02:18:28;13.22;96.14
75705;DHT22;64391;44.686;37.628;2022-11-20T02:19:31;13.21;96.27
75705;DHT22;64391;44.686;37.628;2022-11-20T02:20:32;13.19;96.28
75705;DHT22;64391;44.686;37.628;2022-11-20T02:21:39;13.20;96.52
75705;DHT22;64391;44.686;37.628;2022-11-20T02:24:58;13.29;96.84
75705;DHT22;64391;44.686;37.628;2022-11-20T02:26:01;13.49;100.77
75705;DHT22;64391;44.686;37.628;2022-11-20T02:27:13;13.67;102.10
75705;DHT22;64391;44.686;37.628;2022-11-20T02:28:15;13.96;103.38
75705;DHT22;64391;44.686;37.628;2022-11-20T02:29:19;14.23;104.07
75705;DHT22;64391;44.686;37.628;2022-11-20T02:30:21;14.36;104.15
75705;DHT22;64391;44.686;37.628;2022-11-20T02:31:22;14.45;104.08
75705;DHT22;64391;44.686;37.628;2022-11-20T02:32:26;14.55;103.89
75705;DHT22;64391;44.686;37.628;2022-11-20T02:33:27;14.68;103.74
75705;DHT22;64391;44.686;37.628;2022-11-20T02:34:29;14.78;103.38
75705;DHT22;64391;44.686;37.628;2022-11-20T02:36:33;14.95;102.64
75705;DHT22;64391;44.686;37.628;2022-11-20T02:37:37;15.01;102.29
75705;DHT22;64391;44.686;37.628;2022-11-20T02:38:39;15.09;101.90
75705;DHT22;64391;44.686;37.628;2022-11-20T02:39:41;15.10;101.09
75705;DHT22;64391;44.686;37.628;2022-11-20T02:40:42;15.17;100.89
75705;DHT22;64391;44.686;37.628;2022-11-20T02:41:44;15.25;100.84
75705;DHT22;64391;44.686;37.628;2022-11-20T02:42:45;15.30;100.78
75705;DHT22;64391;44.686;37.628;2022-11-20T02:43:47;15.36;100.74
75705;DHT22;64391;44.686;37.628;2022-11-20T02:44:48;15.42;100.74
75705;DHT22;64391;44.686;37.628;2022-11-20T02:45:50;15.47;100.62
75705;DHT22;64391;44.686;37.628;2022-11-20T02:46:51;15.53;100.73
75705;DHT22;64391;44.686;37.628;2022-11-20T02:47:52;15.59;100.75
75705;DHT22;64391;44.686;37.628;2022-11-20T02:48:53;15.65;100.66
75705;DHT22;64391;44.686;37.628;2022-11-20T02:49:55;15.68;100.48
75705;DHT22;64391;44.686;37.628;2022-11-20T02:50:56;15.72;100.45
75705;DHT22;64391;44.686;37.628;2022-11-20T02:51:57;15.73;100.25
75705;DHT22;64391;44.686;37.628;2022-11-20T02:52:59;15.78;100.00
75705;DHT22;64391;44.686;37.628;2022-11-20T02:54:00;15.81;99.75
75705;DHT22;64391;44.686;37.628;2022-11-20T02:55:01;15.85;99.46
75705;DHT22;64391;44.686;37.628;2022-11-20T02:56:03;15.88;99.06
75705;DHT22;64391;44.686;37.628;2022-11-20T02:57:04;15.91;98.97
75705;DHT22;64391;44.686;37.628;2022-11-20T02:58:06;15.95;98.95
75705;DHT22;64391;44.686;37.628;2022-11-20T02:59:07;15.97;98.94
75705;DHT22;64391;44.686;37.628;2022-11-20T03:00:09;16.02;99.16
75705;DHT22;64391;44.686;37.628;2022-11-20T03:01:10;16.04;98.98
75705;DHT22;64391;44.686;37.628;2022-11-20T03:02:11;16.05;99.01
75705;DHT22;64391;44.686;37.628;2022-11-20T03:03:13;16.07;98.94
75705;DHT22;64391;44.686;37.628;2022-11-20T03:04:14;16.07;99.02
75705;DHT22;64391;44.686;37.628;2022-11-20T03:05:16;16.11;99.19
75705;DHT22;64391;44.686;37.628;2022-11-20T03:06:17;16.13;99.21
75705;DHT22;64391;44.686;37.628;2022-11-20T03:07:18;16.13;99.12
75705;DHT22;64391;44.686;37.628;2022-11-20T03:08:19;16.16;99.17
75705;DHT22;64391;44.686;37.628;2022-11-20T03:09:21;16.20;99.07
75705;DHT22;64391;44.686;37.628;2022-11-20T03:10:22;16.21;98.97
75705;DHT22;64391;44.686;37.628;2022-11-20T03:11:24;16.20;98.84
75705;DHT22;64391;44.686;37.628;2022-11-20T03:12:25;16.24;98.87
75705;DHT22;64391;44.686;37.628;2022-11-20T03:13:26;16.24;98.65
75705;DHT22;64391;44.686;37.628;2022-11-20T03:14:28;16.26;98.58
75705;DHT22;64391;44.686;37.628;2022-11-20T03:15:29;16.28;98.53
75705;DHT22;64391;44.686;37.628;2022-11-20T03:16:31;16.29;98.55
75705;DHT22;64391;44.686;37.628;2022-11-20T03:17:32;16.29;98.58
75705;DHT22;64391;44.686;37.628;2022-11-20T03:18:34;16.29;98.44
75705;DHT22;64391;44.686;37.628;2022-11-20T03:19:35;16.31;98.39
75705;DHT22;64391;44.686;37.628;2022-11-20T03:20:36;16.31;98.45
75705;DHT22;64391;44.686;37.628;2022-11-20T03:21:38;16.31;98.52
75705;DHT22;64391;44.686;37.628;2022-11-20T03:22:39;16.32;98.51
75705;DHT22;64391;44.686;37.628;2022-11-20T03:23:40;16.32;98.49
75705;DHT22;64391;44.686;37.628;2022-11-20T03:24:42;16.32;98.58
75705;DHT22;64391;44.686;37.628;2022-11-20T03:25:43;16.30;98.67
75705;DHT22;64391;44.686;37.628;2022-11-20T03:26:44;16.32;98.73
75705;DHT22;64391;44.686;37.628;2022-11-20T03:27:46;16.33;98.68
75705;DHT22;64391;44.686;37.628;2022-11-20T03:28:54;16.34;98.69
75705;DHT22;64391;44.686;37.628;2022-11-20T03:29:55;16.36;98.78
75705;DHT22;64391;44.686;37.628;2022-11-20T03:30:57;16.36;98.74
75705;DHT22;64391;44.686;37.628;2022-11-20T03:31:58;16.37;98.64
75705;DHT22;64391;44.686;37.628;2022-11-20T03:32:59;16.40;98.60
75705;DHT22;64391;44.686;37.628;2022-11-20T03:34:01;16.41;98.64
75705;DHT22;64391;44.686;37.628;2022-11-20T03:35:02;16.41;98.68
75705;DHT22;64391;44.686;37.628;2022-11-20T03:36:04;16.41;98.72
75705;DHT22;64391;44.686;37.628;2022-11-20T03:37:06;16.42;98.74
75705;DHT22;64391;44.686;37.628;2022-11-20T03:38:07;16.42;98.63
75705;DHT22;64391;44.686;37.628;2022-11-20T03:39:09;16.44;98.68
75705;DHT22;64391;44.686;37.628;2022-11-20T03:40:10;16.44;98.57
75705;DHT22;64391;44.686;37.628;2022-11-20T03:41:13;16.46;98.81
75705;DHT22;64391;44.686;37.628;2022-11-20T03:42:15;16.47;98.85
75705;DHT22;64391;44.686;37.628;2022-11-20T03:43:35;16.46;99.02
75705;DHT22;64391;44.686;37.628;2022-11-20T03:44:37;16.47;98.94
75705;DHT22;64391;44.686;37.628;2022-11-20T03:45:38;16.49;98.88
75705;DHT22;64391;44.686;37.628;2022-11-20T03:46:39;16.49;98.96
75705;DHT22;64391;44.686;37.628;2022-11-20T03:47:41;16.50;98.94
75705;DHT22;64391;44.686;37.628;2022-11-20T03:48:42;16.49;99.08
75705;DHT22;64391;44.686;37.628;2022-11-20T03:49:44;16.52;99.07
75705;DHT22;64391;44.686;37.628;2022-11-20T03:50:45;16.52;99.03
75705;DHT22;64391;44.686;37.628;2022-11-20T03:51:48;16.54;99.03
75705;DHT22;64391;44.686;37.628;2022-11-20T03:52:49;16.51;98.84
75705;DHT22;64391;44.686;37.628;2022-11-20T03:53:52;16.51;98.92
75705;DHT22;64391;44.686;37.628;2022-11-20T03:54:54;16.51;98.95
75705;DHT22;64391;44.686;37.628;2022-11-20T03:55:55;16.52;98.90
75705;DHT22;64391;44.686;37.628;2022-11-20T03:56:56;16.54;98.80
75705;DHT22;64391;44.686;37.628;2022-11-20T03:57:58;16.54;98.68
75705;DHT22;64391;44.686;37.628;2022-11-20T03:58:59;16.56;98.60
75705;DHT22;64391;44.686;37.628;2022-11-20T04:00:01;16.58;98.58
75705;DHT22;64391;44.686;37.628;2022-11-20T04:01:09;16.59;98.50
75705;DHT22;64391;44.686;37.628;2022-11-20T04:02:10;16.60;98.53
75705;DHT22;64391;44.686;37.628;2022-11-20T04:03:12;16.60;98.53
75705;DHT22;64391;44.686;37.628;2022-11-20T04:04:13;16.60;98.32
75705;DHT22;64391;44.686;37.628;2022-11-20T04:05:14;16.58;98.57
75705;DHT22;64391;44.686;37.628;2022-11-20T04:06:17;16.58;98.61
75705;DHT22;64391;44.686;37.628;2022-11-20T04:07:18;16.58;98.50
75705;DHT22;64391;44.686;37.628;2022-11-20T04:08:20;16.55;98.54
75705;DHT22;64391;44.686;37.628;2022-11-20T04:09:21;16.57;98.62
75705;DHT22;64391;44.686;37.628;2022-11-20T04:10:22;16.59;98.50
75705;DHT22;64391;44.686;37.628;2022-11-20T04:11:25;16.62;98.53
75705;DHT22;64391;44.686;37.628;2022-11-20T04:12:26;16.62;98.48
75705;DHT22;64391;44.686;37.628;2022-11-20T04:13:27;16.63;98.49
75705;DHT22;64391;44.686;37.628;2022-11-20T04:14:29;16.63;98.44
75705;DHT22;64391;44.686;37.628;2022-11-20T04:15:30;16.65;98.47
75705;DHT22;64391;44.686;37.628;2022-11-20T04:16:33;16.65;98.24
75705;DHT22;64391;44.686;37.628;2022-11-20T04:17:34;16.67;98.24
75705;DHT22;64391;44.686;37.628;2022-11-20T04:18:36;16.69;98.15
75705;DHT22;64391;44.686;37.628;2022-11-20T04:19:37;16.70;98.11
75705;DHT22;64391;44.686;37.628;2022-11-20T04:20:38;16.71;98.05
75705;DHT22;64391;44.686;37.628;2022-11-20T04:21:40;16.72;98.00
75705;DHT22;64391;44.686;37.628;2022-11-20T04:22:42;16.72;97.90
75705;DHT22;64391;44.686;37.628;2022-11-20T04:23:43;16.71;97.76
75705;DHT22;64391;44.686;37.628;2022-11-20T04:24:44;16.71;97.77
75705;DHT22;64391;44.686;37.628;2022-11-20T04:25:46;16.72;97.64
75705;DHT22;64391;44.686;37.628;2022-11-20T04:26:47;16.73;97.52
75705;DHT22;64391;44.686;37.628;2022-11-20T04:27:48;16.72;97.53
75705;DHT22;64391;44.686;37.628;2022-11-20T04:28:50;16.73;97.53
75705;DHT22;64391;44.686;37.628;2022-11-20T04:29:51;16.73;97.42
75705;DHT22;64391;44.686;37.628;2022-11-20T04:30:52;16.74;97.39
75705;DHT22;64391;44.686;37.628;2022-11-20T04:31:54;16.75;97.36
75705;DHT22;64391;44.686;37.628;2022-11-20T04:32:55;16.73;97.37
75705;DHT22;64391;44.686;37.628;2022-11-20T04:34:00;16.75;97.21
75705;DHT22;64391;44.686;37.628;2022-11-20T04:35:02;16.75;97.13
75705;DHT22;64391;44.686;37.628;2022-11-20T04:36:04;16.76;97.32
75705;DHT22;64391;44.686;37.628;2022-11-20T04:37:06;16.75;97.26
75705;DHT22;64391;44.686;37.628;2022-11-20T04:38:07;16.75;97.22
75705;DHT22;64391;44.686;37.628;2022-11-20T04:39:12;16.73;96.97
75705;DHT22;64391;44.686;37.628;2022-11-20T04:40:13;16.66;96.71
75705;DHT22;64391;44.686;37.628;2022-11-20T04:41:16;16.60;96.58
75705;DHT22;64391;44.686;37.628;2022-11-20T04:42:17;16.63;96.39
75705;DHT22;64391;44.686;37.628;2022-11-20T04:43:31;16.66;96.50
75705;DHT22;64391;44.686;37.628;2022-11-20T04:44:32;16.66;96.28
75705;DHT22;64391;44.686;37.628;2022-11-20T04:45:34;16.67;96.40
75705;DHT22;64391;44.686;37.628;2022-11-20T04:46:37;16.70;96.27
75705;DHT22;64391;44.686;37.628;2022-11-20T04:47:38;16.71;95.86
75705;DHT22;64391;44.686;37.628;2022-11-20T04:48:40;16.72;95.55
75705;DHT22;64391;44.686;37.628;2022-11-20T04:49:41;16.73;95.59
75705;DHT22;64391;44.686;37.628;2022-11-20T04:50:42;16.74;95.39
75705;DHT22;64391;44.686;37.628;2022-11-20T04:51:44;16.74;95.01
75705;DHT22;64391;44.686;37.628;2022-11-20T04:52:45;16.75;94.75
75705;DHT22;64391;44.686;37.628;2022-11-20T04:53:47;16.77;94.24
75705;DHT22;64391;44.686;37.628;2022-11-20T04:54:48;16.79;94.40
75705;DHT22;64391;44.686;37.628;2022-11-20T04:55:49;16.78;94.35
75705;DHT22;64391;44.686;37.628;2022-11-20T04:56:51;16.79;94.33
75705;DHT22;64391;44.686;37.628;2022-11-20T04:57:52;16.80;94.49
75705;DHT22;64391;44.686;37.628;2022-11-20T04:58:53;16.82;94.55
75705;DHT22;64391;44.686;37.628;2022-11-20T04:59:55;16.81;94.04
75705;DHT22;64391;44.686;37.628;2022-11-20T05:01:03;16.82;94.10
75705;DHT22;64391;44.686;37.628;2022-11-20T05:02:04;16.82;93.77
75705;DHT22;64391;44.686;37.628;2022-11-20T05:03:06;16.84;93.86
75705;DHT22;64391;44.686;37.628;2022-11-20T05:04:07;16.84;93.87
75705;DHT22;64391;44.686;37.628;2022-11-20T05:05:08;16.81;93.81
75705;DHT22;64391;44.686;37.628;2022-11-20T05:06:11;16.85;93.63
75705;DHT22;64391;44.686;37.628;2022-11-20T05:07:12;16.85;93.44
75705;DHT22;64391;44.686;37.628;2022-11-20T05:08:13;16.88;93.40
75705;DHT22;64391;44.686;37.628;2022-11-20T05:09:15;16.87;93.05
75705;DHT22;64391;44.686;37.628;2022-11-20T05:10:16;16.87;92.89
75705;DHT22;64391;44.686;37.628;2022-11-20T05:11:20;16.88;93.26
75705;DHT22;64391;44.686;37.628;2022-11-20T05:12:22;16.87;93.27
75705;DHT22;64391;44.686;37.628;2022-11-20T05:13:23;16.85;93.62
75705;DHT22;64391;44.686;37.628;2022-11-20T05:14:24;16.82;93.71
75705;DHT22;64391;44.686;37.628;2022-11-20T05:15:26;16.80;94.07
75705;DHT22;64391;44.686;37.628;2022-11-20T05:16:27;16.82;93.95
75705;DHT22;64391;44.686;37.628;2022-11-20T05:17:28;16.87;94.01
75705;DHT22;64391;44.686;37.628;2022-11-20T05:18:30;16.88;93.93
75705;DHT22;64391;44.686;37.628;2022-11-20T05:19:31;16.90;93.85
75705;DHT22;64391;44.686;37.628;2022-11-20T05:20:33;16.92;93.91
75705;DHT22;64391;44.686;37.628;2022-11-20T05:21:34;16.89;93.46
75705;DHT22;64391;44.686;37.628;2022-11-20T05:22:35;16.88;93.24
75705;DHT22;64391;44.686;37.628;2022-11-20T05:23:37;16.89;93.44
75705;DHT22;64391;44.686;37.628;2022-11-20T05:24:38;16.87;93.47
75705;DHT22;64391;44.686;37.628;2022-11-20T05:25:39;16.86;93.62
75705;DHT22;64391;44.686;37.628;2022-11-20T05:26:41;16.87;93.60
75705;DHT22;64391;44.686;37.628;2022-11-20T05:27:42;16.88;93.45
75705;DHT22;64391;44.686;37.628;2022-11-20T05:28:44;16.87;93.31
75705;DHT22;64391;44.686;37.628;2022-11-20T05:29:45;16.87;93.14
75705;DHT22;64391;44.686;37.628;2022-11-20T05:30:46;16.87;93.33
75705;DHT22;64391;44.686;37.628;2022-11-20T05:31:47;16.86;92.99
75705;DHT22;64391;44.686;37.628;2022-11-20T05:32:49;16.87;93.10
75705;DHT22;64391;44.686;37.628;2022-11-20T05:33:50;16.87;93.01
75705;DHT22;64391;44.686;37.628;2022-11-20T05:34:52;16.89;93.13
75705;DHT22;64391;44.686;37.628;2022-11-20T05:35:57;16.90;93.01
75705;DHT22;64391;44.686;37.628;2022-11-20T05:36:58;16.90;93.16
75705;DHT22;64391;44.686;37.628;2022-11-20T05:38:00;16.91;93.01
75705;DHT22;64391;44.686;37.628;2022-11-20T05:39:01;16.91;93.10
75705;DHT22;64391;44.686;37.628;2022-11-20T05:40:03;16.94;93.26
75705;DHT22;64391;44.686;37.628;2022-11-20T05:42:05;16.93;92.85
75705;DHT22;64391;44.686;37.628;2022-11-20T05:43:25;16.92;92.57
75705;DHT22;64391;44.686;37.628;2022-11-20T05:44:27;16.92;92.48
75705;DHT22;64391;44.686;37.628;2022-11-20T05:45:28;16.92;92.37
75705;DHT22;64391;44.686;37.628;2022-11-20T05:46:29;16.91;92.21
75705;DHT22;64391;44.686;37.628;2022-11-20T05:47:32;16.94;92.43
75705;DHT22;64391;44.686;37.628;2022-11-20T05:48:34;16.93;92.05
75705;DHT22;64391;44.686;37.628;2022-11-20T05:49:35;16.94;92.02
75705;DHT22;64391;44.686;37.628;2022-11-20T05:50:37;16.96;92.26
75705;DHT22;64391;44.686;37.628;2022-11-20T05:51:38;16.98;92.26
75705;DHT22;64391;44.686;37.628;2022-11-20T05:52:39;16.98;91.72
75705;DHT22;64391;44.686;37.628;2022-11-20T05:53:41;17.00;92.14
75705;DHT22;64391;44.686;37.628;2022-11-20T05:54:42;16.98;93.37
75705;DHT22;64391;44.686;37.628;2022-11-20T05:55:44;16.96;93.28
75705;DHT22;64391;44.686;37.628;2022-11-20T05:56:45;16.91;94.53
75705;DHT22;64391;44.686;37.628;2022-11-20T05:57:46;16.92;93.83
75705;DHT22;64391;44.686;37.628;2022-11-20T05:58:48;16.94;93.78
75705;DHT22;64391;44.686;37.628;2022-11-20T05:59:49;16.94;93.71
75705;DHT22;64391;44.686;37.628;2022-11-20T06:00:51;16.94;93.86
75705;DHT22;64391;44.686;37.628;2022-11-20T06:01:52;16.95;93.48
75705;DHT22;64391;44.686;37.628;2022-11-20T06:02:53;16.95;93.52
75705;DHT22;64391;44.686;37.628;2022-11-20T06:03:55;16.96;93.24
75705;DHT22;64391;44.686;37.628;2022-11-20T06:04:56;16.99;93.37
75705;DHT22;64391;44.686;37.628;2022-11-20T06:05:58;17.00;93.41
75705;DHT22;64391;44.686;37.628;2022-11-20T06:07:00;17.01;93.82
75705;DHT22;64391;44.686;37.628;2022-11-20T06:08:01;17.03;93.87
75705;DHT22;64391;44.686;37.628;2022-11-20T06:09:02;17.04;93.62
75705;DHT22;64391;44.686;37.628;2022-11-20T06:10:04;17.07;93.78
75705;DHT22;64391;44.686;37.628;2022-11-20T06:11:06;17.09;93.59
75705;DHT22;64391;44.686;37.628;2022-11-20T06:12:08;17.09;93.60
75705;DHT22;64391;44.686;37.628;2022-11-20T06:13:10;17.09;93.66
75705;DHT22;64391;44.686;37.628;2022-11-20T06:14:11;17.08;93.48
75705;DHT22;64391;44.686;37.628;2022-11-20T06:15:12;17.10;93.38
75705;DHT22;64391;44.686;37.628;2022-11-20T06:16:14;17.07;93.71
75705;DHT22;64391;44.686;37.628;2022-11-20T06:17:16;17.06;94.01
75705;DHT22;64391;44.686;37.628;2022-11-20T06:18:17;17.08;93.75
75705;DHT22;64391;44.686;37.628;2022-11-20T06:19:19;17.11;93.62
75705;DHT22;64391;44.686;37.628;2022-11-20T06:20:21;17.13;93.63
75705;DHT22;64391;44.686;37.628;2022-11-20T06:21:22;17.10;93.08
75705;DHT22;64391;44.686;37.628;2022-11-20T06:22:24;17.09;92.84
75705;DHT22;64391;44.686;37.628;2022-11-20T06:23:25;17.09;92.91
75705;DHT22;64391;44.686;37.628;2022-11-20T06:24:26;17.06;92.84
75705;DHT22;64391;44.686;37.628;2022-11-20T06:25:27;17.06;92.82
75705;DHT22;64391;44.686;37.628;2022-11-20T06:26:29;17.07;93.04
75705;DHT22;64391;44.686;37.628;2022-11-20T06:27:31;17.02;93.11
75705;DHT22;64391;44.686;37.628;2022-11-20T06:28:32;17.02;93.36
75705;DHT22;64391;44.686;37.628;2022-11-20T06:29:34;16.96;92.64
75705;DHT22;64391;44.686;37.628;2022-11-20T06:30:35;16.93;92.88
75705;DHT22;64391;44.686;37.628;2022-11-20T06:31:37;16.94;91.92